sensor_id;sensor_type;location;lat;lon;timestamp;P1;durP1;ratioP1;P2;durP2;ratioP2
31482;SDS011;18103;52.246;8.052;2023-07-24T00:01:12;3.70;;;2.70;;
31482;SDS011;18103;52.246;8.052;2023-07-24T00:03:37;3.60;;;3.23;;
31482;SDS011;18103;52.246;8.052;2023-07-24T00:06:07;4.07;;;3.07;;
31482;SDS011;18103;52.246;8.052;2023-07-24T00:08:35;4.57;;;3.03;;
31482;SDS011;18103;52.246;8.052;2023-07-24T00:11:00;2.87;;;2.50;;
31482;SDS011;18103;52.246;8.052;2023-07-24T00:13:32;3.80;;;2.50;;
31482;SDS011;18103;52.246;8.052;2023-07-24T00:16:00;4.77;;;2.97;;
31482;SDS011;18103;52.246;8.052;2023-07-24T00:18:30;3.13;;;2.57;;
31482;SDS011;18103;52.246;8.052;2023-07-24T00:20:58;3.73;;;2.70;;
31482;SDS011;18103;52.246;8.052;2023-07-24T00:23:26;5.43;;;3.00;;
31482;SDS011;18103;52.246;8.052;2023-07-24T00:25:54;3.53;;;3.03;;
31482;SDS011;18103;52.246;8.052;2023-07-24T00:28:19;4.53;;;3.03;;
31482;SDS011;18103;52.246;8.052;2023-07-24T00:30:44;5.13;;;2.90;;
31482;SDS011;18103;52.246;8.052;2023-07-24T00:33:13;5.93;;;3.13;;
31482;SDS011;18103;52.246;8.052;2023-07-24T00:35:41;4.77;;;2.80;;
31482;SDS011;18103;52.246;8.052;2023-07-24T00:38:06;4.70;;;3.00;;
31482;SDS011;18103;52.246;8.052;2023-07-24T00:40:32;3.93;;;3.33;;
31482;SDS011;18103;52.246;8.052;2023-07-24T00:42:57;3.47;;;2.93;;
31482;SDS011;18103;52.246;8.052;2023-07-24T00:45:23;5.33;;;3.40;;
31482;SDS011;18103;52.246;8.052;2023-07-24T00:47:51;4.43;;;3.33;;
31482;SDS011;18103;52.246;8.052;2023-07-24T00:50:19;4.10;;;3.30;;
31482;SDS011;18103;52.246;8.052;2023-07-24T00:52:44;5.03;;;3.90;;
31482;SDS011;18103;52.246;8.052;2023-07-24T00:55:10;5.50;;;4.00;;
31482;SDS011;18103;52.246;8.052;2023-07-24T00:57:38;4.20;;;3.80;;
31482;SDS011;18103;52.246;8.052;2023-07-24T01:00:03;6.37;;;3.97;;
31482;SDS011;18103;52.246;8.052;2023-07-24T01:02:30;10.43;;;4.90;;
31482;SDS011;18103;52.246;8.052;2023-07-24T01:04:55;5.73;;;4.20;;
31482;SDS011;18103;52.246;8.052;2023-07-24T01:07:21;7.13;;;4.63;;
31482;SDS011;18103;52.246;8.052;2023-07-24T01:09:46;5.40;;;4.37;;
31482;SDS011;18103;52.246;8.052;2023-07-24T01:12:27;6.80;;;4.40;;
31482;SDS011;18103;52.246;8.052;2023-07-24T01:18:10;5.00;;;3.93;;
31482;SDS011;18103;52.246;8.052;2023-07-24T01:20:40;6.33;;;4.30;;
31482;SDS011;18103;52.246;8.052;2023-07-24T01:25:56;5.77;;;4.27;;
31482;SDS011;18103;52.246;8.052;2023-07-24T01:28:27;6.13;;;4.70;;
31482;SDS011;18103;52.246;8.052;2023-07-24T01:30:57;6.57;;;4.80;;
31482;SDS011;18103;52.246;8.052;2023-07-24T01:33:22;6.73;;;4.60;;
31482;SDS011;18103;52.246;8.052;2023-07-24T01:35:50;5.90;;;4.87;;
31482;SDS011;18103;52.246;8.052;2023-07-24T01:38:25;8.80;;;5.00;;
31482;SDS011;18103;52.246;8.052;2023-07-24T01:40:53;6.13;;;4.63;;
31482;SDS011;18103;52.246;8.052;2023-07-24T01:43:19;8.57;;;4.90;;
31482;SDS011;18103;52.246;8.052;2023-07-24T01:45:47;5.57;;;4.40;;
31482;SDS011;18103;52.246;8.052;2023-07-24T01:48:12;9.20;;;4.77;;
31482;SDS011;18103;52.246;8.052;2023-07-24T01:50:42;6.70;;;4.93;;
31482;SDS011;18103;52.246;8.052;2023-07-24T01:53:08;5.90;;;4.90;;
31482;SDS011;18103;52.246;8.052;2023-07-24T01:55:34;6.70;;;4.50;;
31482;SDS011;18103;52.246;8.052;2023-07-24T01:57:59;9.37;;;4.50;;
31482;SDS011;18103;52.246;8.052;2023-07-24T02:00:27;11.57;;;5.20;;
31482;SDS011;18103;52.246;8.052;2023-07-24T02:02:55;8.47;;;4.80;;
31482;SDS011;18103;52.246;8.052;2023-07-24T02:05:22;8.17;;;4.90;;
31482;SDS011;18103;52.246;8.052;2023-07-24T02:07:48;7.40;;;5.13;;
31482;SDS011;18103;52.246;8.052;2023-07-24T02:10:13;9.97;;;5.50;;
31482;SDS011;18103;52.246;8.052;2023-07-24T02:12:38;8.13;;;5.30;;
31482;SDS011;18103;52.246;8.052;2023-07-24T02:15:04;6.67;;;5.23;;
31482;SDS011;18103;52.246;8.052;2023-07-24T02:17:30;6.87;;;5.20;;
31482;SDS011;18103;52.246;8.052;2023-07-24T02:19:56;6.50;;;4.73;;
31482;SDS011;18103;52.246;8.052;2023-07-24T02:22:24;7.50;;;4.70;;
31482;SDS011;18103;52.246;8.052;2023-07-24T02:24:49;9.30;;;4.83;;
31482;SDS011;18103;52.246;8.052;2023-07-24T02:27:24;7.07;;;5.00;;
31482;SDS011;18103;52.246;8.052;2023-07-24T02:29:56;8.90;;;4.70;;
31482;SDS011;18103;52.246;8.052;2023-07-24T02:32:21;7.27;;;4.17;;
31482;SDS011;18103;52.246;8.052;2023-07-24T02:34:48;10.47;;;5.33;;
31482;SDS011;18103;52.246;8.052;2023-07-24T02:37:16;10.70;;;5.27;;
31482;SDS011;18103;52.246;8.052;2023-07-24T02:39:44;11.20;;;5.50;;
31482;SDS011;18103;52.246;8.052;2023-07-24T02:42:10;7.80;;;5.27;;
31482;SDS011;18103;52.246;8.052;2023-07-24T02:44:36;9.20;;;6.03;;
31482;SDS011;18103;52.246;8.052;2023-07-24T02:47:04;10.87;;;6.83;;
31482;SDS011;18103;52.246;8.052;2023-07-24T02:49:29;9.30;;;5.50;;
31482;SDS011;18103;52.246;8.052;2023-07-24T02:51:55;7.90;;;6.47;;
31482;SDS011;18103;52.246;8.052;2023-07-24T02:54:20;8.70;;;6.30;;
31482;SDS011;18103;52.246;8.052;2023-07-24T02:56:49;9.80;;;5.47;;
31482;SDS011;18103;52.246;8.052;2023-07-24T02:59:19;8.87;;;6.10;;
31482;SDS011;18103;52.246;8.052;2023-07-24T03:01:44;8.40;;;5.37;;
31482;SDS011;18103;52.246;8.052;2023-07-24T03:04:09;14.47;;;5.30;;
31482;SDS011;18103;52.246;8.052;2023-07-24T03:06:38;11.13;;;5.83;;
31482;SDS011;18103;52.246;8.052;2023-07-24T03:09:06;9.13;;;5.77;;
31482;SDS011;18103;52.246;8.052;2023-07-24T03:11:32;7.57;;;5.20;;
31482;SDS011;18103;52.246;8.052;2023-07-24T03:13:57;11.53;;;4.90;;
31482;SDS011;18103;52.246;8.052;2023-07-24T03:16:26;8.83;;;4.50;;
31482;SDS011;18103;52.246;8.052;2023-07-24T03:18:53;8.00;;;4.20;;
31482;SDS011;18103;52.246;8.052;2023-07-24T03:21:19;9.67;;;4.70;;
31482;SDS011;18103;52.246;8.052;2023-07-24T03:23:45;7.50;;;4.20;;
31482;SDS011;18103;52.246;8.052;2023-07-24T03:26:11;9.37;;;4.43;;
31482;SDS011;18103;52.246;8.052;2023-07-24T03:28:36;8.13;;;4.00;;
31482;SDS011;18103;52.246;8.052;2023-07-24T03:31:01;9.87;;;4.53;;
31482;SDS011;18103;52.246;8.052;2023-07-24T03:33:27;7.33;;;4.33;;
31482;SDS011;18103;52.246;8.052;2023-07-24T03:35:52;6.20;;;4.33;;
31482;SDS011;18103;52.246;8.052;2023-07-24T03:38:20;6.43;;;3.70;;
31482;SDS011;18103;52.246;8.052;2023-07-24T03:40:48;7.57;;;3.57;;
31482;SDS011;18103;52.246;8.052;2023-07-24T03:43:13;8.60;;;4.03;;
31482;SDS011;18103;52.246;8.052;2023-07-24T03:45:38;9.20;;;3.20;;
31482;SDS011;18103;52.246;8.052;2023-07-24T03:48:04;5.47;;;3.00;;
31482;SDS011;18103;52.246;8.052;2023-07-24T03:50:30;7.07;;;3.13;;
31482;SDS011;18103;52.246;8.052;2023-07-24T03:52:55;8.83;;;3.63;;
31482;SDS011;18103;52.246;8.052;2023-07-24T03:55:21;10.87;;;3.53;;
31482;SDS011;18103;52.246;8.052;2023-07-24T03:57:49;7.10;;;2.93;;
31482;SDS011;18103;52.246;8.052;2023-07-24T04:00:17;8.13;;;3.30;;
31482;SDS011;18103;52.246;8.052;2023-07-24T04:02:46;4.43;;;3.20;;
31482;SDS011;18103;52.246;8.052;2023-07-24T04:05:14;4.63;;;2.97;;
31482;SDS011;18103;52.246;8.052;2023-07-24T04:07:39;13.67;;;4.10;;
31482;SDS011;18103;52.246;8.052;2023-07-24T04:10:05;7.20;;;3.50;;
31482;SDS011;18103;52.246;8.052;2023-07-24T04:12:31;6.97;;;3.00;;
31482;SDS011;18103;52.246;8.052;2023-07-24T04:14:58;9.70;;;3.47;;
31482;SDS011;18103;52.246;8.052;2023-07-24T04:17:24;6.93;;;3.60;;
31482;SDS011;18103;52.246;8.052;2023-07-24T04:19:49;7.97;;;2.97;;
31482;SDS011;18103;52.246;8.052;2023-07-24T04:22:17;10.77;;;3.50;;
31482;SDS011;18103;52.246;8.052;2023-07-24T04:24:43;7.47;;;3.63;;
31482;SDS011;18103;52.246;8.052;2023-07-24T04:27:08;10.20;;;2.80;;
31482;SDS011;18103;52.246;8.052;2023-07-24T04:29:33;11.60;;;4.03;;
31482;SDS011;18103;52.246;8.052;2023-07-24T04:31:58;8.63;;;3.10;;
31482;SDS011;18103;52.246;8.052;2023-07-24T04:34:24;10.67;;;2.70;;
31482;SDS011;18103;52.246;8.052;2023-07-24T04:36:51;8.27;;;3.00;;
31482;SDS011;18103;52.246;8.052;2023-07-24T04:39:17;6.17;;;3.20;;
31482;SDS011;18103;52.246;8.052;2023-07-24T04:41:45;3.57;;;2.60;;
31482;SDS011;18103;52.246;8.052;2023-07-24T04:44:12;7.50;;;2.87;;
31482;SDS011;18103;52.246;8.052;2023-07-24T04:46:38;4.17;;;2.70;;
31482;SDS011;18103;52.246;8.052;2023-07-24T04:49:05;5.80;;;2.90;;
31482;SDS011;18103;52.246;8.052;2023-07-24T04:51:31;8.70;;;2.77;;
31482;SDS011;18103;52.246;8.052;2023-07-24T04:53:56;8.33;;;2.90;;
31482;SDS011;18103;52.246;8.052;2023-07-24T04:56:24;6.27;;;3.30;;
31482;SDS011;18103;52.246;8.052;2023-07-24T04:58:55;5.40;;;2.77;;
31482;SDS011;18103;52.246;8.052;2023-07-24T05:01:23;8.47;;;3.47;;
31482;SDS011;18103;52.246;8.052;2023-07-24T05:03:48;6.50;;;2.63;;
31482;SDS011;18103;52.246;8.052;2023-07-24T05:06:13;5.47;;;3.00;;
31482;SDS011;18103;52.246;8.052;2023-07-24T05:08:39;8.93;;;3.30;;
31482;SDS011;18103;52.246;8.052;2023-07-24T05:11:04;6.93;;;3.10;;
31482;SDS011;18103;52.246;8.052;2023-07-24T05:13:30;14.17;;;2.73;;
31482;SDS011;18103;52.246;8.052;2023-07-24T05:15:55;7.07;;;3.10;;
31482;SDS011;18103;52.246;8.052;2023-07-24T05:18:20;6.13;;;3.13;;
31482;SDS011;18103;52.246;8.052;2023-07-24T05:20:46;5.53;;;3.33;;
31482;SDS011;18103;52.246;8.052;2023-07-24T05:23:13;7.23;;;3.07;;
31482;SDS011;18103;52.246;8.052;2023-07-24T05:25:39;6.07;;;3.33;;
31482;SDS011;18103;52.246;8.052;2023-07-24T05:28:07;4.23;;;3.00;;
31482;SDS011;18103;52.246;8.052;2023-07-24T05:30:32;8.93;;;2.17;;
31482;SDS011;18103;52.246;8.052;2023-07-24T05:33:00;3.07;;;2.27;;
31482;SDS011;18103;52.246;8.052;2023-07-24T05:35:30;2.60;;;1.83;;
31482;SDS011;18103;52.246;8.052;2023-07-24T05:37:55;6.27;;;2.37;;
31482;SDS011;18103;52.246;8.052;2023-07-24T05:40:23;5.67;;;1.53;;
31482;SDS011;18103;52.246;8.052;2023-07-24T05:42:48;2.47;;;1.83;;
31482;SDS011;18103;52.246;8.052;2023-07-24T05:45:14;2.10;;;1.43;;
31482;SDS011;18103;52.246;8.052;2023-07-24T05:47:42;2.87;;;1.70;;
31482;SDS011;18103;52.246;8.052;2023-07-24T05:50:09;2.83;;;2.00;;
31482;SDS011;18103;52.246;8.052;2023-07-24T05:52:37;3.73;;;1.80;;
31482;SDS011;18103;52.246;8.052;2023-07-24T05:55:03;4.90;;;1.70;;
31482;SDS011;18103;52.246;8.052;2023-07-24T05:57:28;4.53;;;2.43;;
31482;SDS011;18103;52.246;8.052;2023-07-24T05:59:56;2.73;;;1.80;;
31482;SDS011;18103;52.246;8.052;2023-07-24T06:02:22;3.27;;;1.97;;
31482;SDS011;18103;52.246;8.052;2023-07-24T06:04:49;4.67;;;1.87;;
31482;SDS011;18103;52.246;8.052;2023-07-24T06:07:15;6.27;;;2.30;;
31482;SDS011;18103;52.246;8.052;2023-07-24T06:09:42;2.03;;;1.70;;
31482;SDS011;18103;52.246;8.052;2023-07-24T06:12:10;3.00;;;2.00;;
31482;SDS011;18103;52.246;8.052;2023-07-24T06:14:38;2.50;;;1.77;;
31482;SDS011;18103;52.246;8.052;2023-07-24T06:17:03;4.37;;;1.73;;
31482;SDS011;18103;52.246;8.052;2023-07-24T06:19:31;2.43;;;1.30;;
31482;SDS011;18103;52.246;8.052;2023-07-24T06:21:59;2.30;;;1.33;;
31482;SDS011;18103;52.246;8.052;2023-07-24T06:24:27;3.13;;;1.80;;
31482;SDS011;18103;52.246;8.052;2023-07-24T06:26:55;2.40;;;1.40;;
31482;SDS011;18103;52.246;8.052;2023-07-24T06:29:20;3.67;;;1.20;;
31482;SDS011;18103;52.246;8.052;2023-07-24T06:31:48;3.47;;;1.63;;
31482;SDS011;18103;52.246;8.052;2023-07-24T06:34:16;2.00;;;1.37;;
31482;SDS011;18103;52.246;8.052;2023-07-24T06:36:46;2.10;;;1.50;;
31482;SDS011;18103;52.246;8.052;2023-07-24T06:39:11;2.80;;;1.60;;
31482;SDS011;18103;52.246;8.052;2023-07-24T06:41:39;8.87;;;1.93;;
31482;SDS011;18103;52.246;8.052;2023-07-24T06:44:04;2.47;;;2.00;;
31482;SDS011;18103;52.246;8.052;2023-07-24T06:46:30;3.57;;;2.43;;
31482;SDS011;18103;52.246;8.052;2023-07-24T06:48:55;2.70;;;2.07;;
31482;SDS011;18103;52.246;8.052;2023-07-24T06:51:23;4.03;;;2.70;;
31482;SDS011;18103;52.246;8.052;2023-07-24T06:53:53;3.83;;;2.07;;
31482;SDS011;18103;52.246;8.052;2023-07-24T06:56:18;3.43;;;2.43;;
31482;SDS011;18103;52.246;8.052;2023-07-24T06:58:46;4.60;;;2.93;;
31482;SDS011;18103;52.246;8.052;2023-07-24T07:01:11;3.73;;;2.83;;
31482;SDS011;18103;52.246;8.052;2023-07-24T07:03:37;4.93;;;2.80;;
31482;SDS011;18103;52.246;8.052;2023-07-24T07:06:04;4.43;;;2.90;;
31482;SDS011;18103;52.246;8.052;2023-07-24T07:08:33;6.07;;;3.13;;
31482;SDS011;18103;52.246;8.052;2023-07-24T07:11:01;6.03;;;3.07;;
31482;SDS011;18103;52.246;8.052;2023-07-24T07:13:29;4.40;;;2.53;;
31482;SDS011;18103;52.246;8.052;2023-07-24T07:15:57;4.03;;;3.20;;
31482;SDS011;18103;52.246;8.052;2023-07-24T07:18:22;5.37;;;3.10;;
31482;SDS011;18103;52.246;8.052;2023-07-24T07:20:51;4.50;;;3.47;;
31482;SDS011;18103;52.246;8.052;2023-07-24T07:23:17;4.10;;;3.17;;
31482;SDS011;18103;52.246;8.052;2023-07-24T07:25:43;4.30;;;2.93;;
31482;SDS011;18103;52.246;8.052;2023-07-24T07:28:15;5.27;;;3.00;;
31482;SDS011;18103;52.246;8.052;2023-07-24T07:30:41;5.20;;;3.00;;
31482;SDS011;18103;52.246;8.052;2023-07-24T07:33:07;3.93;;;3.10;;
31482;SDS011;18103;52.246;8.052;2023-07-24T07:35:35;5.60;;;2.90;;
31482;SDS011;18103;52.246;8.052;2023-07-24T07:38:01;4.47;;;2.97;;
31482;SDS011;18103;52.246;8.052;2023-07-24T07:40:27;4.80;;;3.27;;
31482;SDS011;18103;52.246;8.052;2023-07-24T07:42:53;3.50;;;3.03;;
31482;SDS011;18103;52.246;8.052;2023-07-24T07:45:21;4.33;;;3.50;;
31482;SDS011;18103;52.246;8.052;2023-07-24T07:47:52;4.30;;;3.30;;
31482;SDS011;18103;52.246;8.052;2023-07-24T07:50:18;3.40;;;2.90;;
31482;SDS011;18103;52.246;8.052;2023-07-24T07:52:44;8.47;;;3.77;;
31482;SDS011;18103;52.246;8.052;2023-07-24T07:55:09;7.07;;;3.70;;
31482;SDS011;18103;52.246;8.052;2023-07-24T07:57:36;4.60;;;3.50;;
31482;SDS011;18103;52.246;8.052;2023-07-24T08:00:06;5.90;;;4.43;;
31482;SDS011;18103;52.246;8.052;2023-07-24T08:02:32;6.00;;;3.40;;
31482;SDS011;18103;52.246;8.052;2023-07-24T08:05:01;5.63;;;4.00;;
31482;SDS011;18103;52.246;8.052;2023-07-24T08:07:27;6.17;;;4.10;;
31482;SDS011;18103;52.246;8.052;2023-07-24T08:09:52;4.97;;;3.40;;
31482;SDS011;18103;52.246;8.052;2023-07-24T08:12:21;4.63;;;3.40;;
31482;SDS011;18103;52.246;8.052;2023-07-24T08:14:46;4.77;;;3.20;;
31482;SDS011;18103;52.246;8.052;2023-07-24T08:17:12;6.00;;;3.07;;
31482;SDS011;18103;52.246;8.052;2023-07-24T08:19:37;5.17;;;3.17;;
31482;SDS011;18103;52.246;8.052;2023-07-24T08:22:02;5.10;;;2.43;;
31482;SDS011;18103;52.246;8.052;2023-07-24T08:24:33;7.03;;;2.70;;
31482;SDS011;18103;52.246;8.052;2023-07-24T08:26:59;7.70;;;2.87;;
31482;SDS011;18103;52.246;8.052;2023-07-24T08:29:26;5.87;;;2.90;;
31482;SDS011;18103;52.246;8.052;2023-07-24T08:31:52;2.97;;;2.40;;
31482;SDS011;18103;52.246;8.052;2023-07-24T08:34:17;2.00;;;1.60;;
31482;SDS011;18103;52.246;8.052;2023-07-24T08:36:43;3.50;;;2.00;;
31482;SDS011;18103;52.246;8.052;2023-07-24T08:39:08;1.87;;;1.60;;
31482;SDS011;18103;52.246;8.052;2023-07-24T08:41:33;3.33;;;1.80;;
31482;SDS011;18103;52.246;8.052;2023-07-24T08:44:00;7.00;;;1.40;;
31482;SDS011;18103;52.246;8.052;2023-07-24T08:46:28;4.13;;;1.80;;
31482;SDS011;18103;52.246;8.052;2023-07-24T08:48:54;4.23;;;1.50;;
31482;SDS011;18103;52.246;8.052;2023-07-24T08:51:20;1.37;;;1.20;;
31482;SDS011;18103;52.246;8.052;2023-07-24T08:53:51;1.33;;;1.20;;
31482;SDS011;18103;52.246;8.052;2023-07-24T08:56:22;1.50;;;1.10;;
31482;SDS011;18103;52.246;8.052;2023-07-24T08:58:48;1.87;;;1.30;;
31482;SDS011;18103;52.246;8.052;2023-07-24T09:01:13;1.70;;;1.10;;
31482;SDS011;18103;52.246;8.052;2023-07-24T09:03:38;2.30;;;1.20;;
31482;SDS011;18103;52.246;8.052;2023-07-24T09:06:04;2.47;;;1.57;;
31482;SDS011;18103;52.246;8.052;2023-07-24T09:08:32;2.03;;;1.70;;
31482;SDS011;18103;52.246;8.052;2023-07-24T09:10:58;2.30;;;1.33;;
31482;SDS011;18103;52.246;8.052;2023-07-24T09:13:24;1.60;;;1.40;;
31482;SDS011;18103;52.246;8.052;2023-07-24T09:15:56;1.67;;;1.57;;
31482;SDS011;18103;52.246;8.052;2023-07-24T09:18:24;2.97;;;1.73;;
31482;SDS011;18103;52.246;8.052;2023-07-24T09:20:49;2.93;;;1.87;;
31482;SDS011;18103;52.246;8.052;2023-07-24T09:23:15;3.10;;;2.27;;
31482;SDS011;18103;52.246;8.052;2023-07-24T09:25:42;4.57;;;2.40;;
31482;SDS011;18103;52.246;8.052;2023-07-24T09:28:08;4.20;;;2.40;;
31482;SDS011;18103;52.246;8.052;2023-07-24T09:30:38;4.87;;;2.87;;
31482;SDS011;18103;52.246;8.052;2023-07-24T09:33:04;3.83;;;2.60;;
31482;SDS011;18103;52.246;8.052;2023-07-24T09:35:30;8.07;;;2.40;;
31482;SDS011;18103;52.246;8.052;2023-07-24T09:43:24;2.77;;;2.23;;
31482;SDS011;18103;52.246;8.052;2023-07-24T09:45:52;6.87;;;2.50;;
31482;SDS011;18103;52.246;8.052;2023-07-24T09:48:19;4.03;;;2.90;;
31482;SDS011;18103;52.246;8.052;2023-07-24T09:50:48;4.00;;;2.93;;
31482;SDS011;18103;52.246;8.052;2023-07-24T09:56:20;6.27;;;2.63;;
31482;SDS011;18103;52.246;8.052;2023-07-24T09:58:52;3.60;;;2.90;;
31482;SDS011;18103;52.246;8.052;2023-07-24T10:01:20;3.77;;;2.87;;
31482;SDS011;18103;52.246;8.052;2023-07-24T10:03:49;4.97;;;3.03;;
31482;SDS011;18103;52.246;8.052;2023-07-24T10:06:15;4.10;;;2.93;;
31482;SDS011;18103;52.246;8.052;2023-07-24T10:08:42;5.37;;;2.47;;
31482;SDS011;18103;52.246;8.052;2023-07-24T10:11:08;5.67;;;3.00;;
31482;SDS011;18103;52.246;8.052;2023-07-24T10:13:35;3.97;;;3.00;;
31482;SDS011;18103;52.246;8.052;2023-07-24T10:16:02;3.83;;;2.87;;
31482;SDS011;18103;52.246;8.052;2023-07-24T10:18:30;5.40;;;3.00;;
31482;SDS011;18103;52.246;8.052;2023-07-24T10:23:29;9.80;;;2.53;;
31482;SDS011;18103;52.246;8.052;2023-07-24T10:26:02;8.73;;;3.00;;
31482;SDS011;18103;52.246;8.052;2023-07-24T10:28:30;4.53;;;2.70;;
31482;SDS011;18103;52.246;8.052;2023-07-24T10:31:03;4.50;;;3.07;;
31482;SDS011;18103;52.246;8.052;2023-07-24T10:33:33;5.97;;;2.83;;
31482;SDS011;18103;52.246;8.052;2023-07-24T10:36:05;3.97;;;2.90;;
31482;SDS011;18103;52.246;8.052;2023-07-24T10:38:38;5.57;;;2.70;;
31482;SDS011;18103;52.246;8.052;2023-07-24T10:41:10;4.33;;;2.77;;
31482;SDS011;18103;52.246;8.052;2023-07-24T10:46:08;3.93;;;2.47;;
31482;SDS011;18103;52.246;8.052;2023-07-24T10:48:36;3.27;;;2.27;;
31482;SDS011;18103;52.246;8.052;2023-07-24T10:51:06;6.57;;;2.93;;
31482;SDS011;18103;52.246;8.052;2023-07-24T10:53:36;4.53;;;2.53;;
31482;SDS011;18103;52.246;8.052;2023-07-24T10:56:03;5.97;;;2.83;;
31482;SDS011;18103;52.246;8.052;2023-07-24T10:58:32;2.77;;;2.10;;
31482;SDS011;18103;52.246;8.052;2023-07-24T11:00:58;4.30;;;2.50;;
31482;SDS011;18103;52.246;8.052;2023-07-24T11:03:26;4.53;;;2.40;;
31482;SDS011;18103;52.246;8.052;2023-07-24T11:05:52;8.10;;;2.60;;
31482;SDS011;18103;52.246;8.052;2023-07-24T11:08:19;4.40;;;2.90;;
31482;SDS011;18103;52.246;8.052;2023-07-24T11:10:49;3.47;;;2.67;;
31482;SDS011;18103;52.246;8.052;2023-07-24T11:13:18;4.57;;;2.73;;
31482;SDS011;18103;52.246;8.052;2023-07-24T11:15:45;6.00;;;2.73;;
31482;SDS011;18103;52.246;8.052;2023-07-24T11:18:11;4.30;;;2.83;;
31482;SDS011;18103;52.246;8.052;2023-07-24T11:20:46;4.57;;;2.80;;
31482;SDS011;18103;52.246;8.052;2023-07-24T11:23:14;5.37;;;2.77;;
31482;SDS011;18103;52.246;8.052;2023-07-24T11:25:40;9.23;;;3.07;;
31482;SDS011;18103;52.246;8.052;2023-07-24T11:28:06;3.17;;;2.63;;
31482;SDS011;18103;52.246;8.052;2023-07-24T11:30:33;4.80;;;2.90;;
31482;SDS011;18103;52.246;8.052;2023-07-24T11:33:02;8.63;;;3.67;;
31482;SDS011;18103;52.246;8.052;2023-07-24T11:35:29;4.83;;;3.07;;
31482;SDS011;18103;52.246;8.052;2023-07-24T11:37:55;4.40;;;3.40;;
31482;SDS011;18103;52.246;8.052;2023-07-24T11:40:21;5.53;;;2.77;;
31482;SDS011;18103;52.246;8.052;2023-07-24T11:42:57;6.83;;;3.87;;
31482;SDS011;18103;52.246;8.052;2023-07-24T11:45:23;4.63;;;3.60;;
31482;SDS011;18103;52.246;8.052;2023-07-24T11:47:48;6.33;;;3.47;;
31482;SDS011;18103;52.246;8.052;2023-07-24T11:50:15;5.83;;;3.53;;
31482;SDS011;18103;52.246;8.052;2023-07-24T11:52:42;4.53;;;3.30;;
31482;SDS011;18103;52.246;8.052;2023-07-24T11:55:14;3.93;;;2.97;;
31482;SDS011;18103;52.246;8.052;2023-07-24T11:57:40;4.40;;;3.27;;
31482;SDS011;18103;52.246;8.052;2023-07-24T12:00:06;4.27;;;3.10;;
31482;SDS011;18103;52.246;8.052;2023-07-24T12:02:43;4.73;;;3.50;;
31482;SDS011;18103;52.246;8.052;2023-07-24T12:05:09;5.97;;;2.80;;
31482;SDS011;18103;52.246;8.052;2023-07-24T12:07:35;3.67;;;2.90;;
31482;SDS011;18103;52.246;8.052;2023-07-24T12:10:05;5.90;;;2.90;;
31482;SDS011;18103;52.246;8.052;2023-07-24T12:12:38;6.97;;;3.43;;
31482;SDS011;18103;52.246;8.052;2023-07-24T12:15:13;5.43;;;3.27;;
31482;SDS011;18103;52.246;8.052;2023-07-24T12:17:39;6.47;;;3.90;;
31482;SDS011;18103;52.246;8.052;2023-07-24T12:20:06;3.63;;;2.93;;
31482;SDS011;18103;52.246;8.052;2023-07-24T12:22:36;6.63;;;3.43;;
31482;SDS011;18103;52.246;8.052;2023-07-24T12:25:03;4.57;;;3.33;;
31482;SDS011;18103;52.246;8.052;2023-07-24T12:27:29;5.37;;;3.30;;
31482;SDS011;18103;52.246;8.052;2023-07-24T12:29:55;8.10;;;3.50;;
31482;SDS011;18103;52.246;8.052;2023-07-24T12:32:21;9.03;;;2.90;;
31482;SDS011;18103;52.246;8.052;2023-07-24T12:34:48;5.83;;;2.67;;
31482;SDS011;18103;52.246;8.052;2023-07-24T12:37:14;4.87;;;3.00;;
31482;SDS011;18103;52.246;8.052;2023-07-24T12:39:44;4.73;;;3.00;;
31482;SDS011;18103;52.246;8.052;2023-07-24T12:42:10;5.87;;;3.00;;
31482;SDS011;18103;52.246;8.052;2023-07-24T12:44:36;4.53;;;3.10;;
31482;SDS011;18103;52.246;8.052;2023-07-24T12:47:04;4.83;;;2.63;;
31482;SDS011;18103;52.246;8.052;2023-07-24T12:49:32;5.00;;;3.07;;
31482;SDS011;18103;52.246;8.052;2023-07-24T12:52:01;5.77;;;2.70;;
31482;SDS011;18103;52.246;8.052;2023-07-24T12:54:29;5.10;;;2.77;;
31482;SDS011;18103;52.246;8.052;2023-07-24T12:56:57;3.90;;;2.93;;
31482;SDS011;18103;52.246;8.052;2023-07-24T12:59:23;4.50;;;2.63;;
31482;SDS011;18103;52.246;8.052;2023-07-24T13:01:50;4.93;;;2.67;;
31482;SDS011;18103;52.246;8.052;2023-07-24T13:04:19;5.37;;;2.20;;
31482;SDS011;18103;52.246;8.052;2023-07-24T13:06:47;3.37;;;2.07;;
31482;SDS011;18103;52.246;8.052;2023-07-24T13:09:14;3.97;;;1.90;;
31482;SDS011;18103;52.246;8.052;2023-07-24T13:11:42;3.87;;;2.17;;
31482;SDS011;18103;52.246;8.052;2023-07-24T13:14:08;4.27;;;2.40;;
31482;SDS011;18103;52.246;8.052;2023-07-24T13:16:33;5.40;;;2.40;;
31482;SDS011;18103;52.246;8.052;2023-07-24T13:19:01;5.40;;;2.40;;
31482;SDS011;18103;52.246;8.052;2023-07-24T13:21:26;3.97;;;1.80;;
31482;SDS011;18103;52.246;8.052;2023-07-24T13:23:54;3.27;;;2.23;;
31482;SDS011;18103;52.246;8.052;2023-07-24T13:26:22;3.53;;;2.37;;
31482;SDS011;18103;52.246;8.052;2023-07-24T13:28:48;3.00;;;2.03;;
31482;SDS011;18103;52.246;8.052;2023-07-24T13:31:17;4.37;;;2.77;;
31482;SDS011;18103;52.246;8.052;2023-07-24T13:33:46;3.57;;;2.50;;
31482;SDS011;18103;52.246;8.052;2023-07-24T13:36:12;4.63;;;2.43;;
31482;SDS011;18103;52.246;8.052;2023-07-24T13:38:40;3.30;;;2.43;;
31482;SDS011;18103;52.246;8.052;2023-07-24T13:41:06;3.23;;;2.57;;
31482;SDS011;18103;52.246;8.052;2023-07-24T13:43:33;3.97;;;2.30;;
31482;SDS011;18103;52.246;8.052;2023-07-24T13:45:58;2.90;;;2.23;;
31482;SDS011;18103;52.246;8.052;2023-07-24T13:48:24;2.90;;;2.27;;
31482;SDS011;18103;52.246;8.052;2023-07-24T13:50:51;3.47;;;2.40;;
31482;SDS011;18103;52.246;8.052;2023-07-24T13:53:17;5.57;;;2.33;;
31482;SDS011;18103;52.246;8.052;2023-07-24T13:55:42;4.70;;;2.83;;
31482;SDS011;18103;52.246;8.052;2023-07-24T13:58:07;2.80;;;2.50;;
31482;SDS011;18103;52.246;8.052;2023-07-24T14:00:33;5.87;;;2.63;;
31482;SDS011;18103;52.246;8.052;2023-07-24T14:02:58;3.60;;;2.37;;
31482;SDS011;18103;52.246;8.052;2023-07-24T14:05:26;3.43;;;2.47;;
31482;SDS011;18103;52.246;8.052;2023-07-24T14:07:51;3.87;;;2.93;;
31482;SDS011;18103;52.246;8.052;2023-07-24T14:10:19;6.30;;;3.00;;
31482;SDS011;18103;52.246;8.052;2023-07-24T14:12:44;4.87;;;3.33;;
31482;SDS011;18103;52.246;8.052;2023-07-24T14:15:12;5.80;;;2.97;;
31482;SDS011;18103;52.246;8.052;2023-07-24T14:17:38;2.97;;;2.43;;
31482;SDS011;18103;52.246;8.052;2023-07-24T14:20:03;3.73;;;2.90;;
31482;SDS011;18103;52.246;8.052;2023-07-24T14:22:32;2.63;;;2.13;;
31482;SDS011;18103;52.246;8.052;2023-07-24T14:24:57;4.33;;;2.50;;
31482;SDS011;18103;52.246;8.052;2023-07-24T14:27:23;3.33;;;2.40;;
31482;SDS011;18103;52.246;8.052;2023-07-24T14:29:48;3.30;;;2.07;;
31482;SDS011;18103;52.246;8.052;2023-07-24T14:32:13;4.00;;;2.37;;
31482;SDS011;18103;52.246;8.052;2023-07-24T14:34:42;4.13;;;1.90;;
31482;SDS011;18103;52.246;8.052;2023-07-24T14:37:07;3.27;;;2.10;;
31482;SDS011;18103;52.246;8.052;2023-07-24T14:39:35;2.47;;;2.23;;
31482;SDS011;18103;52.246;8.052;2023-07-24T14:42:01;4.17;;;2.20;;
31482;SDS011;18103;52.246;8.052;2023-07-24T14:44:32;2.90;;;2.10;;
31482;SDS011;18103;52.246;8.052;2023-07-24T14:46:57;5.87;;;2.40;;
31482;SDS011;18103;52.246;8.052;2023-07-24T14:49:25;4.13;;;2.67;;
31482;SDS011;18103;52.246;8.052;2023-07-24T14:51:51;5.53;;;2.80;;
31482;SDS011;18103;52.246;8.052;2023-07-24T14:54:16;4.37;;;2.70;;
31482;SDS011;18103;52.246;8.052;2023-07-24T14:56:41;3.77;;;2.63;;
31482;SDS011;18103;52.246;8.052;2023-07-24T14:59:10;4.10;;;2.90;;
31482;SDS011;18103;52.246;8.052;2023-07-24T15:01:38;2.63;;;2.27;;
31482;SDS011;18103;52.246;8.052;2023-07-24T15:04:03;3.67;;;2.40;;
31482;SDS011;18103;52.246;8.052;2023-07-24T15:06:31;4.33;;;2.50;;